sensor_id;sensor_type;location;lat;lon;timestamp;P1;durP1;ratioP1;P2;durP2;ratioP2
79128;SDS011;68529;43.286;23.360;2024-03-02T00:02:42;34.30;;;23.03;;
79128;SDS011;68529;43.286;23.360;2024-03-02T00:05:19;34.93;;;21.83;;
79128;SDS011;68529;43.286;23.360;2024-03-02T00:07:52;28.03;;;20.80;;
79128;SDS011;68529;43.286;23.360;2024-03-02T00:10:21;32.77;;;22.73;;
79128;SDS011;68529;43.286;23.360;2024-03-02T00:12:53;29.53;;;21.10;;
79128;SDS011;68529;43.286;23.360;2024-03-02T00:17:57;32.53;;;21.50;;
79128;SDS011;68529;43.286;23.360;2024-03-02T00:20:24;29.50;;;20.80;;
79128;SDS011;68529;43.286;23.360;2024-03-02T00:22:52;24.93;;;18.83;;
79128;SDS011;68529;43.286;23.360;2024-03-02T00:25:37;30.47;;;21.33;;
79128;SDS011;68529;43.286;23.360;2024-03-02T00:28:05;26.27;;;19.60;;
79128;SDS011;68529;43.286;23.360;2024-03-02T00:33:12;28.70;;;21.47;;
79128;SDS011;68529;43.286;23.360;2024-03-02T00:35:38;31.07;;;22.43;;
79128;SDS011;68529;43.286;23.360;2024-03-02T00:38:06;27.87;;;20.83;;
79128;SDS011;68529;43.286;23.360;2024-03-02T00:40:32;29.30;;;20.37;;
79128;SDS011;68529;43.286;23.360;2024-03-02T00:42:57;27.50;;;20.03;;
79128;SDS011;68529;43.286;23.360;2024-03-02T00:45:24;22.83;;;17.33;;
79128;SDS011;68529;43.286;23.360;2024-03-02T00:47:50;26.17;;;18.43;;
79128;SDS011;68529;43.286;23.360;2024-03-02T00:50:16;26.63;;;19.07;;
79128;SDS011;68529;43.286;23.360;2024-03-02T00:52:42;22.43;;;16.87;;
79128;SDS011;68529;43.286;23.360;2024-03-02T00:55:08;29.90;;;21.37;;
79128;SDS011;68529;43.286;23.360;2024-03-02T00:57:34;27.83;;;20.97;;
79128;SDS011;68529;43.286;23.360;2024-03-02T01:00:00;27.73;;;20.13;;
79128;SDS011;68529;43.286;23.360;2024-03-02T01:02:25;24.63;;;18.90;;
79128;SDS011;68529;43.286;23.360;2024-03-02T01:04:51;29.50;;;21.60;;
79128;SDS011;68529;43.286;23.360;2024-03-02T01:07:17;27.23;;;20.03;;
79128;SDS011;68529;43.286;23.360;2024-03-02T01:09:42;30.40;;;22.43;;
79128;SDS011;68529;43.286;23.360;2024-03-02T01:12:08;27.80;;;21.00;;
79128;SDS011;68529;43.286;23.360;2024-03-02T01:14:33;30.57;;;20.87;;
79128;SDS011;68529;43.286;23.360;2024-03-02T01:16:59;29.53;;;20.40;;
79128;SDS011;68529;43.286;23.360;2024-03-02T01:19:28;29.40;;;20.57;;
79128;SDS011;68529;43.286;23.360;2024-03-02T01:21:53;31.10;;;21.73;;
79128;SDS011;68529;43.286;23.360;2024-03-02T01:24:19;26.33;;;19.70;;
79128;SDS011;68529;43.286;23.360;2024-03-02T01:26:44;32.20;;;22.13;;
79128;SDS011;68529;43.286;23.360;2024-03-02T01:29:09;32.87;;;23.33;;
79128;SDS011;68529;43.286;23.360;2024-03-02T01:31:35;32.60;;;21.70;;
79128;SDS011;68529;43.286;23.360;2024-03-02T01:34:00;35.73;;;23.47;;
79128;SDS011;68529;43.286;23.360;2024-03-02T01:36:26;29.23;;;21.87;;
79128;SDS011;68529;43.286;23.360;2024-03-02T01:38:51;33.17;;;23.27;;
79128;SDS011;68529;43.286;23.360;2024-03-02T01:41:16;30.30;;;21.83;;
79128;SDS011;68529;43.286;23.360;2024-03-02T01:43:42;26.37;;;18.63;;
79128;SDS011;68529;43.286;23.360;2024-03-02T01:46:07;28.77;;;20.97;;
79128;SDS011;68529;43.286;23.360;2024-03-02T01:48:33;27.97;;;20.07;;
79128;SDS011;68529;43.286;23.360;2024-03-02T01:50:59;25.63;;;19.40;;
79128;SDS011;68529;43.286;23.360;2024-03-02T01:53:24;32.83;;;22.00;;
79128;SDS011;68529;43.286;23.360;2024-03-02T01:55:50;30.47;;;21.37;;
79128;SDS011;68529;43.286;23.360;2024-03-02T01:58:15;30.33;;;20.07;;
79128;SDS011;68529;43.286;23.360;2024-03-02T02:00:41;31.20;;;21.87;;
79128;SDS011;68529;43.286;23.360;2024-03-02T02:03:07;30.80;;;23.43;;
79128;SDS011;68529;43.286;23.360;2024-03-02T02:05:32;41.23;;;24.50;;
79128;SDS011;68529;43.286;23.360;2024-03-02T02:08:00;31.77;;;21.20;;
79128;SDS011;68529;43.286;23.360;2024-03-02T02:10:26;27.77;;;19.67;;
79128;SDS011;68529;43.286;23.360;2024-03-02T02:12:51;29.83;;;20.60;;
79128;SDS011;68529;43.286;23.360;2024-03-02T02:17:53;29.73;;;21.13;;
79128;SDS011;68529;43.286;23.360;2024-03-02T02:20:19;33.30;;;22.57;;
79128;SDS011;68529;43.286;23.360;2024-03-02T02:22:54;28.17;;;18.97;;
79128;SDS011;68529;43.286;23.360;2024-03-02T02:25:20;28.00;;;20.23;;
79128;SDS011;68529;43.286;23.360;2024-03-02T02:27:45;30.00;;;21.03;;
79128;SDS011;68529;43.286;23.360;2024-03-02T02:30:11;33.00;;;22.20;;
79128;SDS011;68529;43.286;23.360;2024-03-02T02:32:37;34.57;;;21.67;;
79128;SDS011;68529;43.286;23.360;2024-03-02T02:35:02;28.07;;;21.10;;
79128;SDS011;68529;43.286;23.360;2024-03-02T02:37:28;34.33;;;20.67;;
79128;SDS011;68529;43.286;23.360;2024-03-02T02:39:53;29.90;;;21.00;;
79128;SDS011;68529;43.286;23.360;2024-03-02T02:42:19;31.73;;;21.73;;
79128;SDS011;68529;43.286;23.360;2024-03-02T02:44:44;31.17;;;21.77;;
79128;SDS011;68529;43.286;23.360;2024-03-02T02:47:09;31.87;;;21.67;;
79128;SDS011;68529;43.286;23.360;2024-03-02T02:49:35;30.70;;;21.83;;
79128;SDS011;68529;43.286;23.360;2024-03-02T02:52:00;35.10;;;20.97;;
79128;SDS011;68529;43.286;23.360;2024-03-02T02:54:25;35.87;;;22.80;;
79128;SDS011;68529;43.286;23.360;2024-03-02T02:56:51;33.87;;;21.90;;
79128;SDS011;68529;43.286;23.360;2024-03-02T02:59:16;32.47;;;21.77;;
79128;SDS011;68529;43.286;23.360;2024-03-02T03:01:42;29.37;;;21.33;;
79128;SDS011;68529;43.286;23.360;2024-03-02T03:04:07;32.07;;;22.40;;
79128;SDS011;68529;43.286;23.360;2024-03-02T03:06:32;29.73;;;20.37;;
79128;SDS011;68529;43.286;23.360;2024-03-02T03:08:58;28.60;;;20.13;;
79128;SDS011;68529;43.286;23.360;2024-03-02T03:11:23;29.07;;;19.00;;
79128;SDS011;68529;43.286;23.360;2024-03-02T03:13:49;29.60;;;20.47;;
79128;SDS011;68529;43.286;23.360;2024-03-02T03:16:15;24.50;;;19.17;;
79128;SDS011;68529;43.286;23.360;2024-03-02T03:18:41;25.60;;;18.27;;
79128;SDS011;68529;43.286;23.360;2024-03-02T03:21:06;25.13;;;17.90;;
79128;SDS011;68529;43.286;23.360;2024-03-02T03:23:32;23.07;;;17.33;;
79128;SDS011;68529;43.286;23.360;2024-03-02T03:25:57;24.97;;;19.10;;
79128;SDS011;68529;43.286;23.360;2024-03-02T03:28:22;21.10;;;15.67;;
79128;SDS011;68529;43.286;23.360;2024-03-02T03:30:48;23.77;;;17.17;;
79128;SDS011;68529;43.286;23.360;2024-03-02T03:33:13;25.03;;;18.23;;
79128;SDS011;68529;43.286;23.360;2024-03-02T03:35:39;29.37;;;19.13;;
79128;SDS011;68529;43.286;23.360;2024-03-02T03:38:04;25.93;;;18.37;;
79128;SDS011;68529;43.286;23.360;2024-03-02T03:40:29;20.47;;;16.37;;
79128;SDS011;68529;43.286;23.360;2024-03-02T03:42:55;23.70;;;18.30;;
79128;SDS011;68529;43.286;23.360;2024-03-02T03:45:21;22.57;;;16.07;;
79128;SDS011;68529;43.286;23.360;2024-03-02T03:47:47;23.73;;;17.50;;
79128;SDS011;68529;43.286;23.360;2024-03-02T03:50:12;22.63;;;16.97;;
79128;SDS011;68529;43.286;23.360;2024-03-02T03:52:38;24.70;;;17.67;;
79128;SDS011;68529;43.286;23.360;2024-03-02T03:55:03;22.43;;;17.60;;
79128;SDS011;68529;43.286;23.360;2024-03-02T03:57:30;23.23;;;17.27;;
79128;SDS011;68529;43.286;23.360;2024-03-02T03:59:55;20.07;;;16.07;;
79128;SDS011;68529;43.286;23.360;2024-03-02T04:02:21;23.47;;;17.30;;
79128;SDS011;68529;43.286;23.360;2024-03-02T04:04:46;24.60;;;17.70;;
79128;SDS011;68529;43.286;23.360;2024-03-02T04:07:11;23.67;;;18.00;;
79128;SDS011;68529;43.286;23.360;2024-03-02T04:09:37;26.30;;;18.63;;
79128;SDS011;68529;43.286;23.360;2024-03-02T04:12:02;25.20;;;18.77;;
79128;SDS011;68529;43.286;23.360;2024-03-02T04:14:28;23.07;;;16.23;;
79128;SDS011;68529;43.286;23.360;2024-03-02T04:16:53;24.17;;;17.27;;
79128;SDS011;68529;43.286;23.360;2024-03-02T04:19:19;24.57;;;16.47;;
79128;SDS011;68529;43.286;23.360;2024-03-02T04:21:44;22.30;;;16.23;;
79128;SDS011;68529;43.286;23.360;2024-03-02T04:24:09;21.90;;;16.07;;
79128;SDS011;68529;43.286;23.360;2024-03-02T04:26:35;23.93;;;18.27;;
79128;SDS011;68529;43.286;23.360;2024-03-02T04:29:00;21.03;;;16.07;;
79128;SDS011;68529;43.286;23.360;2024-03-02T04:31:26;22.40;;;16.17;;
79128;SDS011;68529;43.286;23.360;2024-03-02T04:33:52;29.50;;;20.67;;
79128;SDS011;68529;43.286;23.360;2024-03-02T04:36:17;29.00;;;20.20;;
79128;SDS011;68529;43.286;23.360;2024-03-02T04:38:43;23.07;;;17.00;;
79128;SDS011;68529;43.286;23.360;2024-03-02T04:41:08;24.93;;;17.00;;
79128;SDS011;68529;43.286;23.360;2024-03-02T04:43:34;20.87;;;16.20;;
79128;SDS011;68529;43.286;23.360;2024-03-02T04:46:00;26.93;;;19.77;;
79128;SDS011;68529;43.286;23.360;2024-03-02T04:48:25;26.37;;;19.33;;
79128;SDS011;68529;43.286;23.360;2024-03-02T04:50:51;25.43;;;17.47;;
79128;SDS011;68529;43.286;23.360;2024-03-02T04:53:16;22.70;;;17.73;;
79128;SDS011;68529;43.286;23.360;2024-03-02T04:55:42;25.70;;;17.83;;
79128;SDS011;68529;43.286;23.360;2024-03-02T04:58:08;24.80;;;18.83;;
79128;SDS011;68529;43.286;23.360;2024-03-02T05:00:33;25.50;;;18.53;;
79128;SDS011;68529;43.286;23.360;2024-03-02T05:02:59;24.90;;;17.47;;
79128;SDS011;68529;43.286;23.360;2024-03-02T05:05:24;24.97;;;18.87;;
79128;SDS011;68529;43.286;23.360;2024-03-02T05:07:50;31.20;;;23.80;;
79128;SDS011;68529;43.286;23.360;2024-03-02T05:10:15;28.70;;;22.40;;
79128;SDS011;68529;43.286;23.360;2024-03-02T05:12:41;27.03;;;21.10;;
79128;SDS011;68529;43.286;23.360;2024-03-02T05:15:06;25.00;;;18.77;;
79128;SDS011;68529;43.286;23.360;2024-03-02T05:17:32;22.10;;;16.40;;
79128;SDS011;68529;43.286;23.360;2024-03-02T05:19:58;28.40;;;22.80;;
79128;SDS011;68529;43.286;23.360;2024-03-02T05:22:23;28.83;;;22.60;;
79128;SDS011;68529;43.286;23.360;2024-03-02T05:24:49;29.63;;;22.60;;
79128;SDS011;68529;43.286;23.360;2024-03-02T05:27:14;27.10;;;20.93;;
79128;SDS011;68529;43.286;23.360;2024-03-02T05:29:40;28.03;;;21.00;;
79128;SDS011;68529;43.286;23.360;2024-03-02T05:32:05;19.87;;;15.10;;
79128;SDS011;68529;43.286;23.360;2024-03-02T05:34:31;23.87;;;17.07;;
79128;SDS011;68529;43.286;23.360;2024-03-02T05:36:57;23.20;;;18.37;;
79128;SDS011;68529;43.286;23.360;2024-03-02T05:39:23;23.03;;;17.57;;
79128;SDS011;68529;43.286;23.360;2024-03-02T05:41:48;21.73;;;16.57;;
79128;SDS011;68529;43.286;23.360;2024-03-02T05:44:14;26.40;;;19.07;;
79128;SDS011;68529;43.286;23.360;2024-03-02T05:46:40;25.63;;;18.30;;
79128;SDS011;68529;43.286;23.360;2024-03-02T05:49:06;23.57;;;17.63;;
79128;SDS011;68529;43.286;23.360;2024-03-02T05:51:32;24.70;;;17.43;;
79128;SDS011;68529;43.286;23.360;2024-03-02T05:53:58;17.27;;;14.90;;
79128;SDS011;68529;43.286;23.360;2024-03-02T05:56:23;21.47;;;16.27;;
79128;SDS011;68529;43.286;23.360;2024-03-02T05:58:49;22.53;;;16.70;;
79128;SDS011;68529;43.286;23.360;2024-03-02T06:01:33;24.03;;;17.87;;
79128;SDS011;68529;43.286;23.360;2024-03-02T06:03:58;20.77;;;16.63;;
79128;SDS011;68529;43.286;23.360;2024-03-02T06:06:24;21.47;;;16.43;;
79128;SDS011;68529;43.286;23.360;2024-03-02T06:08:49;23.50;;;16.87;;
79128;SDS011;68529;43.286;23.360;2024-03-02T06:11:15;23.77;;;18.17;;
79128;SDS011;68529;43.286;23.360;2024-03-02T06:13:40;25.17;;;22.47;;
79128;SDS011;68529;43.286;23.360;2024-03-02T06:16:06;21.90;;;19.00;;
79128;SDS011;68529;43.286;23.360;2024-03-02T06:18:31;14.67;;;12.53;;
79128;SDS011;68529;43.286;23.360;2024-03-02T06:20:57;13.73;;;11.57;;
79128;SDS011;68529;43.286;23.360;2024-03-02T06:23:22;15.27;;;12.40;;
79128;SDS011;68529;43.286;23.360;2024-03-02T06:25:48;12.70;;;10.80;;
79128;SDS011;68529;43.286;23.360;2024-03-02T06:28:13;13.27;;;10.67;;
79128;SDS011;68529;43.286;23.360;2024-03-02T06:30:40;12.07;;;10.30;;
79128;SDS011;68529;43.286;23.360;2024-03-02T06:33:07;10.40;;;9.17;;
79128;SDS011;68529;43.286;23.360;2024-03-02T06:35:32;12.70;;;10.67;;
79128;SDS011;68529;43.286;23.360;2024-03-02T06:37:57;12.53;;;10.27;;
79128;SDS011;68529;43.286;23.360;2024-03-02T06:40:23;12.00;;;10.17;;
79128;SDS011;68529;43.286;23.360;2024-03-02T06:42:48;20.30;;;16.60;;
79128;SDS011;68529;43.286;23.360;2024-03-02T06:45:14;13.60;;;11.37;;
79128;SDS011;68529;43.286;23.360;2024-03-02T06:47:39;11.67;;;10.40;;
79128;SDS011;68529;43.286;23.360;2024-03-02T06:50:04;19.87;;;15.90;;
79128;SDS011;68529;43.286;23.360;2024-03-02T06:52:32;22.20;;;19.27;;
79128;SDS011;68529;43.286;23.360;2024-03-02T06:54:57;35.27;;;28.10;;
79128;SDS011;68529;43.286;23.360;2024-03-02T06:57:22;43.80;;;36.37;;
79128;SDS011;68529;43.286;23.360;2024-03-02T06:59:49;26.07;;;22.17;;
79128;SDS011;68529;43.286;23.360;2024-03-02T07:02:16;17.83;;;15.93;;
79128;SDS011;68529;43.286;23.360;2024-03-02T07:04:42;20.40;;;17.03;;
79128;SDS011;68529;43.286;23.360;2024-03-02T07:07:07;20.60;;;18.20;;
79128;SDS011;68529;43.286;23.360;2024-03-02T07:09:33;14.40;;;12.00;;
79128;SDS011;68529;43.286;23.360;2024-03-02T07:11:58;10.07;;;8.83;;
79128;SDS011;68529;43.286;23.360;2024-03-02T07:14:23;9.40;;;7.83;;
79128;SDS011;68529;43.286;23.360;2024-03-02T07:17:08;9.30;;;8.33;;
79128;SDS011;68529;43.286;23.360;2024-03-02T07:19:35;9.43;;;8.40;;
79128;SDS011;68529;43.286;23.360;2024-03-02T07:22:00;10.57;;;9.07;;
79128;SDS011;68529;43.286;23.360;2024-03-02T07:24:26;10.27;;;9.27;;
79128;SDS011;68529;43.286;23.360;2024-03-02T07:26:52;9.53;;;7.80;;
79128;SDS011;68529;43.286;23.360;2024-03-02T07:29:17;13.50;;;10.33;;
79128;SDS011;68529;43.286;23.360;2024-03-02T07:31:42;16.30;;;11.73;;
79128;SDS011;68529;43.286;23.360;2024-03-02T07:34:08;15.63;;;11.27;;
79128;SDS011;68529;43.286;23.360;2024-03-02T07:36:33;12.93;;;10.87;;
79128;SDS011;68529;43.286;23.360;2024-03-02T07:38:58;12.57;;;10.73;;
79128;SDS011;68529;43.286;23.360;2024-03-02T07:41:24;11.30;;;9.43;;
79128;SDS011;68529;43.286;23.360;2024-03-02T07:43:49;12.40;;;10.30;;
79128;SDS011;68529;43.286;23.360;2024-03-02T07:46:15;10.70;;;8.57;;
79128;SDS011;68529;43.286;23.360;2024-03-02T07:48:40;9.57;;;8.57;;
79128;SDS011;68529;43.286;23.360;2024-03-02T07:51:07;11.10;;;8.70;;
79128;SDS011;68529;43.286;23.360;2024-03-02T07:53:32;8.00;;;7.20;;
79128;SDS011;68529;43.286;23.360;2024-03-02T07:55:58;8.53;;;7.67;;
79128;SDS011;68529;43.286;23.360;2024-03-02T07:58:27;8.33;;;6.63;;
79128;SDS011;68529;43.286;23.360;2024-03-02T08:00:52;7.50;;;6.80;;
79128;SDS011;68529;43.286;23.360;2024-03-02T08:03:18;9.90;;;8.10;;
79128;SDS011;68529;43.286;23.360;2024-03-02T08:05:44;7.43;;;6.60;;
79128;SDS011;68529;43.286;23.360;2024-03-02T08:08:09;6.23;;;5.63;;
79128;SDS011;68529;43.286;23.360;2024-03-02T08:10:35;7.00;;;6.33;;
79128;SDS011;68529;43.286;23.360;2024-03-02T08:13:00;7.80;;;6.90;;
79128;SDS011;68529;43.286;23.360;2024-03-02T08:15:26;6.70;;;6.10;;
79128;SDS011;68529;43.286;23.360;2024-03-02T08:17:51;7.73;;;6.93;;
79128;SDS011;68529;43.286;23.360;2024-03-02T08:20:17;7.70;;;7.00;;
79128;SDS011;68529;43.286;23.360;2024-03-02T08:22:43;5.70;;;5.20;;
79128;SDS011;68529;43.286;23.360;2024-03-02T08:25:10;6.37;;;5.77;;
79128;SDS011;68529;43.286;23.360;2024-03-02T08:27:36;6.90;;;6.30;;
79128;SDS011;68529;43.286;23.360;2024-03-02T08:30:01;7.17;;;6.47;;
79128;SDS011;68529;43.286;23.360;2024-03-02T08:32:31;7.30;;;6.60;;
79128;SDS011;68529;43.286;23.360;2024-03-02T08:34:56;7.13;;;6.43;;
79128;SDS011;68529;43.286;23.360;2024-03-02T08:37:22;6.50;;;5.90;;
79128;SDS011;68529;43.286;23.360;2024-03-02T08:39:47;8.73;;;7.93;;
79128;SDS011;68529;43.286;23.360;2024-03-02T08:42:12;7.13;;;6.43;;
79128;SDS011;68529;43.286;23.360;2024-03-02T08:44:38;7.50;;;6.67;;
79128;SDS011;68529;43.286;23.360;2024-03-02T08:47:03;6.40;;;5.80;;
79128;SDS011;68529;43.286;23.360;2024-03-02T08:49:29;6.40;;;5.83;;
79128;SDS011;68529;43.286;23.360;2024-03-02T08:51:54;6.47;;;5.90;;
79128;SDS011;68529;43.286;23.360;2024-03-02T08:54:22;6.00;;;5.50;;
79128;SDS011;68529;43.286;23.360;2024-03-02T08:56:50;6.67;;;6.07;;
79128;SDS011;68529;43.286;23.360;2024-03-02T08:59:16;6.43;;;5.90;;
79128;SDS011;68529;43.286;23.360;2024-03-02T09:01:41;5.60;;;5.10;;
79128;SDS011;68529;43.286;23.360;2024-03-02T09:04:08;6.07;;;5.57;;
79128;SDS011;68529;43.286;23.360;2024-03-02T09:06:34;6.27;;;5.70;;
79128;SDS011;68529;43.286;23.360;2024-03-02T09:08:59;8.03;;;7.33;;
79128;SDS011;68529;43.286;23.360;2024-03-02T09:11:25;6.43;;;5.83;;
79128;SDS011;68529;43.286;23.360;2024-03-02T09:13:51;7.17;;;6.43;;
79128;SDS011;68529;43.286;23.360;2024-03-02T09:16:16;11.13;;;10.03;;
79128;SDS011;68529;43.286;23.360;2024-03-02T09:18:42;8.57;;;7.77;;
79128;SDS011;68529;43.286;23.360;2024-03-02T09:21:07;10.83;;;9.77;;
79128;SDS011;68529;43.286;23.360;2024-03-02T09:23:33;13.03;;;11.23;;
79128;SDS011;68529;43.286;23.360;2024-03-02T09:25:59;10.70;;;9.10;;
79128;SDS011;68529;43.286;23.360;2024-03-02T09:28:24;15.33;;;13.73;;
79128;SDS011;68529;43.286;23.360;2024-03-02T09:30:50;16.20;;;13.30;;
79128;SDS011;68529;43.286;23.360;2024-03-02T09:33:15;32.70;;;23.63;;
79128;SDS011;68529;43.286;23.360;2024-03-02T09:35:40;14.83;;;12.07;;
79128;SDS011;68529;43.286;23.360;2024-03-02T09:38:06;15.60;;;12.10;;
79128;SDS011;68529;43.286;23.360;2024-03-02T09:40:31;22.93;;;18.77;;
79128;SDS011;68529;43.286;23.360;2024-03-02T09:42:57;26.40;;;22.87;;
79128;SDS011;68529;43.286;23.360;2024-03-02T09:45:23;24.23;;;21.60;;
79128;SDS011;68529;43.286;23.360;2024-03-02T09:47:50;13.47;;;11.83;;
79128;SDS011;68529;43.286;23.360;2024-03-02T09:50:16;11.27;;;10.07;;
79128;SDS011;68529;43.286;23.360;2024-03-02T09:52:42;7.33;;;6.63;;
79128;SDS011;68529;43.286;23.360;2024-03-02T09:55:08;8.57;;;7.73;;
79128;SDS011;68529;43.286;23.360;2024-03-02T09:57:35;9.13;;;8.23;;
79128;SDS011;68529;43.286;23.360;2024-03-02T10:00:01;10.80;;;9.00;;
79128;SDS011;68529;43.286;23.360;2024-03-02T10:02:27;10.53;;;9.13;;
79128;SDS011;68529;43.286;23.360;2024-03-02T10:04:52;10.77;;;8.07;;
79128;SDS011;68529;43.286;23.360;2024-03-02T10:07:18;7.23;;;6.60;;
79128;SDS011;68529;43.286;23.360;2024-03-02T10:09:45;7.93;;;7.20;;
79128;SDS011;68529;43.286;23.360;2024-03-02T10:12:12;7.00;;;6.40;;
79128;SDS011;68529;43.286;23.360;2024-03-02T10:14:39;7.07;;;6.47;;
79128;SDS011;68529;43.286;23.360;2024-03-02T10:17:09;6.60;;;6.10;;
79128;SDS011;68529;43.286;23.360;2024-03-02T10:19:36;6.07;;;5.50;;
79128;SDS011;68529;43.286;23.360;2024-03-02T10:22:05;6.33;;;5.83;;
79128;SDS011;68529;43.286;23.360;2024-03-02T10:24:38;5.67;;;5.23;;
79128;SDS011;68529;43.286;23.360;2024-03-02T10:27:17;7.07;;;5.60;;
79128;SDS011;68529;43.286;23.360;2024-03-02T10:29:48;5.20;;;4.80;;
79128;SDS011;68529;43.286;23.360;2024-03-02T10:32:14;5.20;;;4.80;;
79128;SDS011;68529;43.286;23.360;2024-03-02T10:34:40;5.40;;;4.90;;
79128;SDS011;68529;43.286;23.360;2024-03-02T10:37:07;4.67;;;4.27;;
79128;SDS011;68529;43.286;23.360;2024-03-02T10:39:36;5.20;;;4.80;;
79128;SDS011;68529;43.286;23.360;2024-03-02T10:42:02;4.57;;;4.20;;
79128;SDS011;68529;43.286;23.360;2024-03-02T10:44:28;6.80;;;5.97;;
79128;SDS011;68529;43.286;23.360;2024-03-02T10:46:55;9.47;;;8.47;;
79128;SDS011;68529;43.286;23.360;2024-03-02T10:49:22;9.83;;;8.73;;
79128;SDS011;68529;43.286;23.360;2024-03-02T10:51:49;6.27;;;5.70;;
79128;SDS011;68529;43.286;23.360;2024-03-02T10:54:14;5.97;;;5.20;;
79128;SDS011;68529;43.286;23.360;2024-03-02T10:56:40;6.80;;;6.10;;
79128;SDS011;68529;43.286;23.360;2024-03-02T11:01:52;4.97;;;4.57;;
79128;SDS011;68529;43.286;23.360;2024-03-02T11:04:21;5.43;;;4.70;;
79128;SDS011;68529;43.286;23.360;2024-03-02T11:06:49;3.77;;;3.47;;
79128;SDS011;68529;43.286;23.360;2024-03-02T11:09:16;7.70;;;6.30;;
79128;SDS011;68529;43.286;23.360;2024-03-02T11:11:44;6.43;;;5.83;;
79128;SDS011;68529;43.286;23.360;2024-03-02T11:14:16;7.07;;;6.27;;
79128;SDS011;68529;43.286;23.360;2024-03-02T11:16:43;6.13;;;5.53;;
79128;SDS011;68529;43.286;23.360;2024-03-02T11:19:10;4.33;;;3.93;;
79128;SDS011;68529;43.286;23.360;2024-03-02T11:21:38;3.77;;;3.50;;
79128;SDS011;68529;43.286;23.360;2024-03-02T11:26:48;4.00;;;3.60;;
79128;SDS011;68529;43.286;23.360;2024-03-02T11:32:00;3.97;;;3.67;;
79128;SDS011;68529;43.286;23.360;2024-03-02T11:34:36;3.57;;;3.27;;
79128;SDS011;68529;43.286;23.360;2024-03-02T11:37:04;5.70;;;5.20;;
79128;SDS011;68529;43.286;23.360;2024-03-02T11:39:30;4.20;;;3.70;;
79128;SDS011;68529;43.286;23.360;2024-03-02T11:41:57;4.70;;;4.30;;
79128;SDS011;68529;43.286;23.360;2024-03-02T11:44:29;5.60;;;5.17;;
79128;SDS011;68529;43.286;23.360;2024-03-02T11:46:58;4.57;;;4.17;;
79128;SDS011;68529;43.286;23.360;2024-03-02T11:49:44;4.67;;;4.27;;
79128;SDS011;68529;43.286;23.360;2024-03-02T11:52:19;3.80;;;3.50;;
79128;SDS011;68529;43.286;23.360;2024-03-02T11:54:46;2.87;;;2.67;;
79128;SDS011;68529;43.286;23.360;2024-03-02T11:57:16;3.23;;;3.00;;
79128;SDS011;68529;43.286;23.360;2024-03-02T11:59:43;3.50;;;3.20;;
79128;SDS011;68529;43.286;23.360;2024-03-02T12:02:15;4.63;;;4.23;;
79128;SDS011;68529;43.286;23.360;2024-03-02T12:04:43;5.13;;;3.53;;
79128;SDS011;68529;43.286;23.360;2024-03-02T12:07:10;3.97;;;3.57;;
79128;SDS011;68529;43.286;23.360;2024-03-02T12:09:36;3.20;;;2.90;;
79128;SDS011;68529;43.286;23.360;2024-03-02T12:12:05;5.50;;;5.00;;
79128;SDS011;68529;43.286;23.360;2024-03-02T12:14:34;4.67;;;4.27;;
79128;SDS011;68529;43.286;23.360;2024-03-02T12:17:01;3.93;;;3.63;;
79128;SDS011;68529;43.286;23.360;2024-03-02T12:19:27;3.80;;;3.50;;
79128;SDS011;68529;43.286;23.360;2024-03-02T12:21:54;4.10;;;3.70;;
79128;SDS011;68529;43.286;23.360;2024-03-02T12:24:21;4.50;;;4.10;;
79128;SDS011;68529;43.286;23.360;2024-03-02T12:26:47;4.90;;;4.50;;
79128;SDS011;68529;43.286;23.360;2024-03-02T12:29:14;4.93;;;3.97;;
79128;SDS011;68529;43.286;23.360;2024-03-02T12:31:40;7.70;;;6.90;;
79128;SDS011;68529;43.286;23.360;2024-03-02T12:34:07;6.07;;;5.47;;
79128;SDS011;68529;43.286;23.360;2024-03-02T12:36:39;5.10;;;4.60;;
79128;SDS011;68529;43.286;23.360;2024-03-02T12:39:06;4.23;;;3.90;;
79128;SDS011;68529;43.286;23.360;2024-03-02T12:41:38;4.47;;;4.07;;
79128;SDS011;68529;43.286;23.360;2024-03-02T12:44:04;6.00;;;5.40;;
79128;SDS011;68529;43.286;23.360;2024-03-02T12:46:30;5.47;;;4.97;;
79128;SDS011;68529;43.286;23.360;2024-03-02T12:48:56;4.93;;;4.47;;
79128;SDS011;68529;43.286;23.360;2024-03-02T12:51:22;5.40;;;4.90;;
79128;SDS011;68529;43.286;23.360;2024-03-02T12:53:57;3.97;;;3.67;;
79128;SDS011;68529;43.286;23.360;2024-03-02T12:56:23;4.97;;;4.57;;
79128;SDS011;68529;43.286;23.360;2024-03-02T12:58:53;5.03;;;4.63;;
79128;SDS011;68529;43.286;23.360;2024-03-02T13:01:21;4.30;;;3.90;;
79128;SDS011;68529;43.286;23.360;2024-03-02T13:03:49;3.70;;;3.40;;
79128;SDS011;68529;43.286;23.360;2024-03-02T13:06:16;5.20;;;4.70;;
79128;SDS011;68529;43.286;23.360;2024-03-02T13:08:42;5.90;;;5.40;;
79128;SDS011;68529;43.286;23.360;2024-03-02T13:11:07;4.60;;;4.30;;
79128;SDS011;68529;43.286;23.360;2024-03-02T13:13:33;5.67;;;4.60;;
79128;SDS011;68529;43.286;23.360;2024-03-02T13:15:59;4.57;;;3.90;;
79128;SDS011;68529;43.286;23.360;2024-03-02T13:18:25;4.40;;;4.00;;
79128;SDS011;68529;43.286;23.360;2024-03-02T13:20:51;3.90;;;3.43;;
79128;SDS011;68529;43.286;23.360;2024-03-02T13:23:17;5.30;;;3.60;;
79128;SDS011;68529;43.286;23.360;2024-03-02T13:25:43;3.97;;;3.67;;
79128;SDS011;68529;43.286;23.360;2024-03-02T13:28:08;3.93;;;3.63;;
79128;SDS011;68529;43.286;23.360;2024-03-02T13:30:34;4.83;;;4.33;;
79128;SDS011;68529;43.286;23.360;2024-03-02T13:32:59;6.00;;;5.10;;
79128;SDS011;68529;43.286;23.360;2024-03-02T13:35:24;8.50;;;5.70;;
79128;SDS011;68529;43.286;23.360;2024-03-02T13:37:50;5.50;;;4.97;;
79128;SDS011;68529;43.286;23.360;2024-03-02T13:40:15;6.63;;;5.47;;
79128;SDS011;68529;43.286;23.360;2024-03-02T13:42:45;5.20;;;4.73;;
79128;SDS011;68529;43.286;23.360;2024-03-02T13:45:11;3.93;;;3.63;;
79128;SDS011;68529;43.286;23.360;2024-03-02T13:47:37;4.70;;;4.23;;
79128;SDS011;68529;43.286;23.360;2024-03-02T13:50:03;3.73;;;3.43;;
79128;SDS011;68529;43.286;23.360;2024-03-02T13:52:30;4.07;;;3.77;;
79128;SDS011;68529;43.286;23.360;2024-03-02T13:54:55;3.43;;;3.20;;
79128;SDS011;68529;43.286;23.360;2024-03-02T13:57:20;3.30;;;3.00;;
79128;SDS011;68529;43.286;23.360;2024-03-02T13:59:46;3.57;;;3.27;;
79128;SDS011;68529;43.286;23.360;2024-03-02T14:02:12;3.07;;;2.87;;
79128;SDS011;68529;43.286;23.360;2024-03-02T14:04:37;3.60;;;3.30;;
79128;SDS011;68529;43.286;23.360;2024-03-02T14:07:04;4.13;;;3.60;;
79128;SDS011;68529;43.286;23.360;2024-03-02T14:09:32;3.43;;;3.13;;
79128;SDS011;68529;43.286;23.360;2024-03-02T14:11:57;3.13;;;2.93;;
79128;SDS011;68529;43.286;23.360;2024-03-02T14:14:22;3.27;;;2.97;;
79128;SDS011;68529;43.286;23.360;2024-03-02T14:16:48;3.90;;;3.60;;
79128;SDS011;68529;43.286;23.360;2024-03-02T14:19:14;3.60;;;3.30;;
79128;SDS011;68529;43.286;23.360;2024-03-02T14:21:39;13.37;;;9.47;;
79128;SDS011;68529;43.286;23.360;2024-03-02T14:24:05;6.43;;;5.70;;
79128;SDS011;68529;43.286;23.360;2024-03-02T14:26:34;3.97;;;3.60;;
79128;SDS011;68529;43.286;23.360;2024-03-02T14:29:01;3.90;;;3.50;;
79128;SDS011;68529;43.286;23.360;2024-03-02T14:31:27;3.37;;;3.03;;
79128;SDS011;68529;43.286;23.360;2024-03-02T14:33:53;3.07;;;2.87;;